Time;durP1;ratioP1;P1;durP2;ratioP2;P2;SDS_P1;SDS_P2;PMS_P1;PMS_P2;Temp;Humidity;BMP_temperature;BMP_pressure;BME280_temperature;BME280_humidity;BME280_pressure;Samples;Min_cycle;Max_cycle;Signal;HPM_P1;HPM_P2
2023/05/08 00:01:47;;;;;;;28.00;24.13;;;;;;;14.23;100.00;101906.38;5032749;28;20021;-53
2023/05/08 00:04:12;;;;;;;27.15;24.23;;;;;;;14.19;100.00;101908.97;5033187;28;20060;-49
2023/05/08 00:06:38;;;;;;;27.20;23.95;;;;;;;14.13;100.00;101909.34;5033062;28;20915;-53
2023/05/08 00:09:03;;;;;;;26.33;23.17;;;;;;;14.09;100.00;101909.13;5033139;28;20413;-54
2023/05/08 00:11:28;;;;;;;27.13;23.85;;;;;;;14.08;100.00;101915.81;5033122;28;20405;-54
2023/05/08 00:13:54;;;;;;;28.00;24.45;;;;;;;14.06;100.00;101915.31;5032896;28;20037;-51
2023/05/08 00:16:19;;;;;;;28.33;25.10;;;;;;;14.03;100.00;101913.13;5033003;28;20037;-52
2023/05/08 00:18:45;;;;;;;28.45;24.45;;;;;;;14.06;100.00;101914.47;5031404;28;20459;-49
2023/05/08 00:21:10;;;;;;;28.33;23.98;;;;;;;14.01;100.00;101912.59;5033075;28;20026;-50
2023/05/08 00:23:36;;;;;;;27.48;23.75;;;;;;;14.02;100.00;101908.69;5032892;28;20026;-50
2023/05/08 00:26:01;;;;;;;29.58;25.63;;;;;;;13.94;100.00;101906.63;5031263;28;20018;-52
2023/05/08 00:28:26;;;;;;;29.73;25.05;;;;;;;13.98;100.00;101896.53;5032645;28;20079;-49
2023/05/08 00:30:52;;;;;;;28.88;25.58;;;;;;;14.00;100.00;101913.75;5032030;28;20354;-51
2023/05/08 00:33:18;;;;;;;28.98;23.67;;;;;;;13.98;100.00;101905.69;5030787;28;20060;-52
2023/05/08 00:38:18;;;;;;;28.77;24.42;;;;;;;14.00;100.00;101900.66;3850074;22;20057;-48
2023/05/08 00:40:43;;;;;;;27.63;24.63;;;;;;;14.02;100.00;101915.09;5032617;28;20109;-48
2023/05/08 00:43:11;;;;;;;30.80;26.38;;;;;;;13.98;100.00;101908.50;5032518;28;20029;-48
2023/05/08 00:45:39;;;;;;;29.15;25.40;;;;;;;14.01;100.00;101907.88;5031710;28;20028;-51
2023/05/08 00:48:05;;;;;;;29.17;25.60;;;;;;;13.98;100.00;101902.13;5030122;28;20523;-46
2023/05/08 00:50:31;;;;;;;28.83;25.35;;;;;;;13.95;100.00;101900.75;5032505;28;20040;-45
2023/05/08 00:52:59;;;;;;;29.17;25.65;;;;;;;13.93;100.00;101903.03;5032343;28;20029;-44
2023/05/08 00:55:24;;;;;;;29.38;26.17;;;;;;;13.92;100.00;101897.75;5032550;28;20502;-43
2023/05/08 00:57:51;;;;;;;29.02;25.80;;;;;;;13.86;100.00;101897.84;5032433;28;20025;-46
2023/05/08 01:00:17;;;;;;;29.58;25.98;;;;;;;13.86;100.00;101903.41;5032089;28;20543;-47
2023/05/08 01:02:43;;;;;;;30.00;25.92;;;;;;;13.84;100.00;101904.81;5032292;28;20033;-46
2023/05/08 01:05:08;;;;;;;28.80;25.25;;;;;;;13.82;100.00;101904.31;5032003;28;20491;-47
2023/05/08 01:07:34;;;;;;;29.17;25.40;;;;;;;13.79;100.00;101902.94;5031902;28;20026;-45
2023/05/08 01:09:59;;;;;;;29.90;25.58;;;;;;;13.81;100.00;101902.66;5031429;28;20047;-51
2023/05/08 01:12:51;;;;;;;31.23;25.85;;;;;;;13.79;100.00;101902.94;5032168;28;20388;-47
2023/05/08 01:15:27;;;;;;;29.48;25.77;;;;;;;13.78;100.00;101901.31;5032051;28;20021;-50
2023/05/08 01:18:10;;;;;;;29.85;25.10;;;;;;;13.79;100.00;101893.78;5031833;28;20040;-49
2023/05/08 01:20:39;;;;;;;31.25;26.05;;;;;;;13.83;100.00;101892.06;5031832;28;20116;-46
2023/05/08 01:23:39;;;;;;;30.38;26.17;;;;;;;13.81;100.00;101895.13;5031917;28;20025;-46
2023/05/08 01:26:24;;;;;;;30.80;26.02;;;;;;;13.81;100.00;101897.09;5031794;28;20060;-46
2023/05/08 01:29:29;;;;;;;30.02;26.38;;;;;;;13.79;100.00;101894.59;5031203;28;20030;-47
2023/05/08 01:32:25;;;;;;;29.83;26.42;;;;;;;13.80;100.00;101898.22;5031741;28;20037;-45
2023/05/08 01:34:57;;;;;;;29.77;26.08;;;;;;;13.79;100.00;101907.69;5031558;28;20108;-46
2023/05/08 01:37:44;;;;;;;30.33;26.00;;;;;;;13.76;100.00;101898.00;5031397;28;20505;-44
2023/05/08 01:40:18;;;;;;;31.05;27.25;;;;;;;13.71;100.00;101898.06;5031417;28;20293;-45
2023/05/08 01:42:52;;;;;;;31.17;27.40;;;;;;;13.73;100.00;101901.38;5028599;28;20033;-46
2023/05/08 01:45:24;;;;;;;31.08;27.50;;;;;;;13.69;100.00;101892.00;5034045;28;20124;-45
2023/05/08 01:48:05;;;;;;;30.58;26.73;;;;;;;13.68;100.00;101887.56;5051393;28;20476;-47
2023/05/08 01:50:35;;;;;;;30.33;27.02;;;;;;;13.66;100.00;101892.59;5051323;28;20056;-46
2023/05/08 01:53:17;;;;;;;31.08;27.58;;;;;;;13.66;100.00;101893.41;5051406;28;20048;-46
2023/05/08 01:55:45;;;;;;;31.15;26.67;;;;;;;13.71;100.00;101901.69;5050069;28;20103;-46
2023/05/08 01:58:12;;;;;;;31.05;27.70;;;;;;;13.75;100.00;101893.56;5051203;28;20557;-47
2023/05/08 02:00:39;;;;;;;31.30;27.95;;;;;;;13.69;100.00;101894.78;5051412;28;20047;-45
2023/05/08 02:03:07;;;;;;;29.50;26.25;;;;;;;13.76;100.00;101902.72;5051382;28;20104;-47
2023/05/08 02:05:36;;;;;;;30.15;26.35;;;;;;;13.76;100.00;101899.94;5051401;28;20040;-46
2023/05/08 02:08:03;;;;;;;30.85;26.80;;;;;;;13.79;100.00;101908.50;5051263;28;20033;-51
2023/05/08 02:10:29;;;;;;;30.55;27.02;;;;;;;13.80;100.00;101912.94;5051571;28;20033;-45
2023/05/08 02:12:55;;;;;;;29.75;26.52;;;;;;;13.82;100.00;101919.03;5051288;28;20107;-49
2023/05/08 02:15:23;;;;;;;29.67;25.77;;;;;;;13.81;100.00;101911.00;5051442;28;20021;-47
2023/05/08 02:17:49;;;;;;;30.25;27.00;;;;;;;13.80;100.00;101923.25;5051345;28;20036;-46
2023/05/08 02:20:15;;;;;;;31.65;27.55;;;;;;;13.77;100.00;101916.34;5052722;28;20036;-46
2023/05/08 02:22:43;;;;;;;30.75;27.05;;;;;;;13.71;100.00;101909.19;5055175;28;20033;-46
2023/05/08 02:25:13;;;;;;;31.50;27.73;;;;;;;13.73;100.00;101913.34;5054847;28;20098;-45
2023/05/08 02:27:44;;;;;;;31.33;27.58;;;;;;;13.74;100.00;101914.16;5055339;28;20037;-46
2023/05/08 02:30:13;;;;;;;30.65;26.95;;;;;;;13.74;100.00;101916.94;5055133;28;20032;-45
2023/05/08 02:32:42;;;;;;;30.50;26.98;;;;;;;13.76;100.00;101906.34;5055021;28;20029;-47
2023/05/08 02:35:09;;;;;;;32.13;27.40;;;;;;;13.76;100.00;101911.91;5054982;28;20033;-46
2023/05/08 02:37:36;;;;;;;31.50;27.60;;;;;;;13.76;100.00;101908.28;5052815;28;20468;-48
2023/05/08 02:40:05;;;;;;;31.58;27.17;;;;;;;13.76;100.00;101913.84;5052206;28;20416;-46
2023/05/08 02:42:30;;;;;;;30.23;26.98;;;;;;;13.78;100.00;101915.22;5054748;28;20467;-45
2023/05/08 02:44:56;;;;;;;31.40;27.58;;;;;;;13.77;100.00;101912.72;5054620;28;20033;-45
2023/05/08 02:47:26;;;;;;;30.85;27.23;;;;;;;13.79;100.00;101924.38;5054571;28;20017;-46
2023/05/08 02:50:01;;;;;;;31.10;27.52;;;;;;;13.76;100.00;101917.47;5054651;28;20048;-46
2023/05/08 02:52:33;;;;;;;30.70;27.10;;;;;;;13.80;100.00;101912.94;5054565;28;20029;-46
2023/05/08 02:55:03;;;;;;;29.95;26.65;;;;;;;13.81;100.00;101913.78;5054506;28;20025;-48
2023/05/08 02:57:42;;;;;;;30.73;27.17;;;;;;;13.82;100.00;101913.47;5054407;28;20051;-45
2023/05/08 03:00:15;;;;;;;31.10;26.98;;;;;;;13.76;100.00;101905.50;5054332;28;20025;-47
2023/05/08 03:02:47;;;;;;;33.17;28.42;;;;;;;13.80;100.00;101904.59;5054467;28;20055;-46
2023/05/08 03:05:16;;;;;;;31.92;28.33;;;;;;;13.76;100.00;101908.28;5054691;28;20460;-47
2023/05/08 03:07:44;;;;;;;31.85;27.48;;;;;;;13.76;100.00;101914.69;5054334;28;20033;-47
2023/05/08 03:10:14;;;;;;;31.42;27.90;;;;;;;13.69;100.00;101915.06;5054300;28;20025;-45
2023/05/08 03:12:44;;;;;;;32.05;28.55;;;;;;;13.64;100.00;101912.38;5054200;28;20487;-47
2023/05/08 03:15:13;;;;;;;33.22;29.13;;;;;;;13.62;100.00;101916.56;5054330;28;20543;-47
2023/05/08 03:17:42;;;;;;;34.25;29.77;;;;;;;13.60;100.00;101913.28;5054308;28;20086;-46
2023/05/08 03:20:11;;;;;;;35.65;31.08;;;;;;;13.54;100.00;101909.72;5053110;28;20021;-47
2023/05/08 03:22:38;;;;;;;35.10;30.42;;;;;;;13.49;100.00;101909.78;5054192;28;20074;-46
2023/05/08 03:25:07;;;;;;;34.80;29.98;;;;;;;13.47;100.00;101909.25;5054187;28;20028;-49
2023/05/08 03:27:34;;;;;;;34.67;30.00;;;;;;;13.46;100.00;101915.97;5054024;28;20021;-47
2023/05/08 03:30:01;;;;;;;36.03;31.00;;;;;;;13.39;100.00;101900.47;5054257;28;20029;-46
2023/05/08 03:32:27;;;;;;;34.63;30.67;;;;;;;13.41;100.00;101908.53;5053277;28;20128;-48
2023/05/08 03:34:56;;;;;;;33.72;29.48;;;;;;;13.36;100.00;101901.06;5050730;28;20063;-45
2023/05/08 03:37:22;;;;;;;33.85;29.52;;;;;;;13.38;100.00;101906.31;5043921;28;20045;-49
2023/05/08 03:39:47;;;;;;;33.42;29.83;;;;;;;13.34;100.00;101897.75;5033503;28;20041;-48
2023/05/08 03:42:20;;;;;;;36.35;31.00;;;;;;;13.33;100.00;101903.59;5033911;28;20036;-46
2023/05/08 03:44:56;;;;;;;36.63;32.63;;;;;;;13.32;100.00;101900.00;5032647;28;20460;-48
2023/05/08 03:47:24;;;;;;;35.70;31.33;;;;;;;13.34;100.00;101894.13;5033976;28;20113;-48
2023/05/08 03:49:50;;;;;;;34.97;30.77;;;;;;;13.37;100.00;101894.34;5033889;28;20079;-48
2023/05/08 03:52:16;;;;;;;36.63;31.15;;;;;;;13.34;100.00;101891.34;5033722;28;20034;-51
2023/05/08 03:54:42;;;;;;;33.67;29.98;;;;;;;13.33;100.00;101895.25;5033469;28;20036;-48
2023/05/08 03:57:08;;;;;;;38.40;31.73;;;;;;;13.30;100.00;101899.47;5033675;28;20108;-46
2023/05/08 03:59:36;;;;;;;36.70;32.30;;;;;;;13.24;100.00;101893.13;5033349;28;20126;-45
2023/05/08 04:02:25;;;;;;;36.55;32.17;;;;;;;13.19;100.00;101898.78;5033328;28;20029;-47
2023/05/08 04:04:59;;;;;;;37.13;32.85;;;;;;;13.14;100.00;101901.59;5031902;28;20445;-47
2023/05/08 04:07:30;;;;;;;37.38;32.45;;;;;;;13.07;100.00;101901.16;5033242;28;20465;-48
2023/05/08 04:10:28;;;;;;;37.25;32.60;;;;;;;13.00;100.00;101906.25;5033030;28;20112;-48
2023/05/08 04:13:07;;;;;;;37.65;31.83;;;;;;;13.05;100.00;101906.16;5033418;28;20165;-47
2023/05/08 04:15:37;;;;;;;36.95;30.38;;;;;;;13.03;100.00;101906.47;5033447;28;20025;-47
2023/05/08 04:18:07;;;;;;;36.17;31.00;;;;;;;13.03;100.00;101903.69;5033301;28;20053;-46
2023/05/08 04:20:33;;;;;;;37.95;31.73;;;;;;;13.02;100.00;101896.50;5033339;28;20030;-49
2023/05/08 04:22:59;;;;;;;36.35;29.83;;;;;;;13.04;100.00;101902.59;5031942;28;20044;-49
2023/05/08 04:25:27;;;;;;;38.35;31.60;;;;;;;13.07;100.00;101913.09;5031848;28;20108;-48
2023/05/08 04:27:54;;;;;;;36.35;31.63;;;;;;;13.09;100.00;101901.69;5032636;28;20037;-47
2023/05/08 04:30:20;;;;;;;36.67;30.45;;;;;;;13.15;100.00;101916.34;5029159;28;20108;-47
2023/05/08 04:32:46;;;;;;;36.50;31.13;;;;;;;13.21;100.00;101912.38;5032846;28;20130;-47
2023/05/08 04:35:12;;;;;;;40.72;32.53;;;;;;;13.20;100.00;101914.34;5031521;28;20029;-46
2023/05/08 04:37:40;;;;;;;38.22;32.00;;;;;;;13.22;100.00;101914.03;5032374;28;20060;-48
2023/05/08 04:40:06;;;;;;;37.33;32.10;;;;;;;13.27;100.00;101916.75;5032530;28;20057;-45
2023/05/08 04:42:32;;;;;;;38.28;31.17;;;;;;;13.30;100.00;101913.34;5032135;28;20037;-45
2023/05/08 04:44:57;;;;;;;37.22;31.52;;;;;;;13.34;100.00;101921.91;5032384;28;20022;-45
2023/05/08 04:47:23;;;;;;;38.75;32.60;;;;;;;13.40;100.00;101921.59;5032294;28;20029;-45
2023/05/08 04:49:48;;;;;;;38.05;32.22;;;;;;;13.42;100.00;101924.06;5032259;28;20032;-44
2023/05/08 04:52:14;;;;;;;39.28;32.33;;;;;;;13.49;100.00;101930.09;5032132;28;20033;-46
2023/05/08 04:54:39;;;;;;;38.47;32.40;;;;;;;13.51;100.00;101932.56;5032075;28;20040;-49
2023/05/08 04:57:06;;;;;;;38.70;32.13;;;;;;;13.57;100.00;101929.41;5031942;28;20033;-46
2023/05/08 04:59:31;;;;;;;38.15;32.70;;;;;;;13.63;100.00;101934.88;5032170;28;20025;-45
2023/05/08 05:01:57;;;;;;;37.05;31.88;;;;;;;13.68;100.00;101929.28;5032034;28;20036;-47
2023/05/08 05:04:22;;;;;;;38.38;32.28;;;;;;;13.73;100.00;101937.53;5031685;28;20025;-49
2023/05/08 05:06:48;;;;;;;37.85;32.45;;;;;;;13.80;100.00;101939.94;5032024;28;20095;-46
2023/05/08 05:09:13;;;;;;;40.05;34.67;;;;;;;13.86;100.00;101931.22;5031871;28;20473;-47
2023/05/08 05:11:38;;;;;;;41.35;36.85;;;;;;;13.90;100.00;101939.78;5034536;28;20067;-45
2023/05/08 05:14:05;;;;;;;40.25;35.55;;;;;;;14.01;100.00;101940.44;5042548;28;20451;-47
2023/05/08 05:16:30;;;;;;;42.03;34.78;;;;;;;14.06;100.00;101943.16;5051842;28;20029;-46
2023/05/08 05:18:55;;;;;;;40.58;35.28;;;;;;;14.14;100.00;101950.81;5051941;28;20111;-46
2023/05/08 05:21:20;;;;;;;41.80;36.50;;;;;;;14.22;100.00;101945.66;5051407;28;20064;-46
2023/05/08 05:23:46;;;;;;;43.22;37.90;;;;;;;14.27;100.00;101949.19;5051449;28;20452;-49
2023/05/08 05:26:11;;;;;;;42.65;38.00;;;;;;;14.32;100.00;101957.44;5051525;28;20036;-50
2023/05/08 05:28:36;;;;;;;44.38;37.03;;;;;;;14.41;100.00;101953.97;5051393;28;20716;-49
2023/05/08 05:31:02;;;;;;;42.25;36.50;;;;;;;14.45;100.00;101963.38;5051396;28;20060;-49
2023/05/08 05:33:27;;;;;;;43.38;37.53;;;;;;;14.47;100.00;101964.72;5051245;28;20083;-50
2023/05/08 05:35:52;;;;;;;43.75;38.25;;;;;;;14.51;100.00;101964.91;5051285;28;20032;-47
2023/05/08 05:38:18;;;;;;;43.25;37.85;;;;;;;14.57;100.00;101962.88;5051257;28;20134;-47
2023/05/08 05:40:43;;;;;;;44.20;39.10;;;;;;;14.64;100.00;101972.47;5048838;28;20467;-47
2023/05/08 05:43:08;;;;;;;44.72;39.70;;;;;;;14.69;100.00;101977.16;5049510;28;20087;-47
2023/05/08 05:45:35;;;;;;;43.90;38.97;;;;;;;14.71;100.00;101979.63;5050918;28;20457;-49
2023/05/08 05:48:00;;;;;;;43.90;38.72;;;;;;;14.77;100.00;101984.81;5051324;28;20048;-48
2023/05/08 05:50:26;;;;;;;43.08;38.38;;;;;;;14.78;100.00;101980.91;5051188;28;20025;-51
2023/05/08 05:52:51;;;;;;;41.88;37.28;;;;;;;14.80;100.00;101981.41;5051366;28;20090;-49
2023/05/08 05:55:16;;;;;;;43.70;38.45;;;;;;;14.84;100.00;101978.00;5050790;28;20024;-47
2023/05/08 05:57:41;;;;;;;44.38;38.63;;;;;;;14.84;100.00;101978.84;5051299;28;20130;-47
2023/05/08 06:00:07;;;;;;;43.42;38.17;;;;;;;14.87;100.00;101983.81;5051455;28;20078;-45
2023/05/08 06:02:34;;;;;;;44.85;38.75;;;;;;;14.91;100.00;101990.41;5051798;28;20033;-46
2023/05/08 06:05:00;;;;;;;45.90;40.10;;;;;;;14.95;100.00;101985.88;5051484;28;20036;-47
2023/05/08 06:07:26;;;;;;;44.25;39.45;;;;;;;14.97;100.00;101989.16;5051290;28;20025;-47
2023/05/08 06:09:52;;;;;;;44.45;39.60;;;;;;;15.00;100.00;101990.53;5051124;28;20391;-47
2023/05/08 06:12:17;;;;;;;46.13;40.13;;;;;;;15.04;100.00;101987.94;5050793;28;20033;-50
2023/05/08 06:14:43;;;;;;;45.13;40.15;;;;;;;15.09;100.00;101991.47;5051051;28;20036;-47
2023/05/08 06:17:08;;;;;;;45.85;40.90;;;;;;;15.12;100.00;101985.25;5049622;28;20033;-44
2023/05/08 06:19:33;;;;;;;46.15;40.05;;;;;;;15.19;100.00;101981.25;5051150;28;20040;-47
2023/05/08 06:21:59;;;;;;;46.05;40.97;;;;;;;15.23;100.00;101979.47;5050976;28;20032;-47
2023/05/08 06:24:24;;;;;;;46.55;40.30;;;;;;;15.32;100.00;101991.53;5050991;28;20108;-44
2023/05/08 06:26:50;;;;;;;47.45;42.30;;;;;;;15.37;100.00;101987.81;5048602;28;20136;-44
2023/05/08 06:29:15;;;;;;;54.28;48.15;;;;;;;15.38;100.00;101979.16;5046274;28;20039;-46
2023/05/08 06:31:40;;;;;;;47.92;42.72;;;;;;;15.44;100.00;101975.13;5044933;28;20152;-45
2023/05/08 06:34:05;;;;;;;46.80;41.70;;;;;;;15.47;100.00;101976.44;5045253;28;20029;-45
2023/05/08 06:36:31;;;;;;;46.88;41.78;;;;;;;15.51;100.00;101985.00;5045124;28;20549;-45
2023/05/08 06:38:56;;;;;;;49.30;43.78;;;;;;;15.51;100.00;101988.66;5044532;28;20119;-45
2023/05/08 06:41:21;;;;;;;50.33;44.83;;;;;;;15.50;100.00;101984.22;5044958;28;20029;-46
2023/05/08 06:43:47;;;;;;;49.90;44.30;;;;;;;15.54;100.00;101993.56;5044867;28;20033;-48
2023/05/08 06:46:12;;;;;;;46.88;41.72;;;;;;;15.54;100.00;101987.19;5049034;28;20395;-45
2023/05/08 06:48:37;;;;;;;47.92;41.97;;;;;;;15.54;100.00;101990.78;5049071;28;20400;-47
2023/05/08 06:51:03;;;;;;;46.70;41.70;;;;;;;15.53;100.00;101997.53;5048467;28;20491;-45
2023/05/08 06:53:29;;;;;;;48.67;42.95;;;;;;;15.50;100.00;101997.31;5048244;28;20032;-47
2023/05/08 06:55:56;;;;;;;48.15;42.83;;;;;;;15.48;100.00;102003.22;5048468;28;20028;-44
2023/05/08 06:58:21;;;;;;;48.47;42.83;;;;;;;15.49;100.00;102002.06;5048703;28;20029;-44
2023/05/08 07:00:47;;;;;;;48.95;43.65;;;;;;;15.47;100.00;102001.56;5048283;28;20025;-45
2023/05/08 07:03:12;;;;;;;49.47;43.92;;;;;;;15.54;100.00;101995.56;5048661;28;20055;-44
2023/05/08 07:05:37;;;;;;;49.95;44.53;;;;;;;15.58;100.00;101994.63;5048366;28;20021;-44
2023/05/08 07:08:03;;;;;;;49.92;44.63;;;;;;;15.65;100.00;101994.19;5049706;28;20041;-46
2023/05/08 07:10:28;;;;;;;53.55;45.90;;;;;;;15.67;100.00;102005.88;5051919;28;20036;-43
2023/05/08 07:12:53;;;;;;;50.22;44.63;;;;;;;15.69;100.00;102002.75;5051693;28;20024;-46
2023/05/08 07:15:19;;;;;;;47.25;41.88;;;;;;;15.69;100.00;102006.38;5051849;28;20439;-46
2023/05/08 07:17:44;;;;;;;50.72;43.88;;;;;;;15.73;100.00;102003.78;5051741;28;20033;-48
2023/05/08 07:20:10;;;;;;;47.85;42.58;;;;;;;15.70;100.00;102007.22;5051692;28;20083;-45
2023/05/08 07:22:35;;;;;;;47.97;42.88;;;;;;;15.70;100.00;102013.59;5045088;28;20025;-47
2023/05/08 07:25:00;;;;;;;50.85;43.60;;;;;;;15.70;100.00;102016.38;5052517;28;20021;-46
2023/05/08 07:27:26;;;;;;;51.03;42.00;;;;;;;15.69;100.00;102022.28;5051700;28;20472;-45
2023/05/08 07:29:51;;;;;;;47.33;42.13;;;;;;;15.67;100.00;102016.19;5051480;28;20118;-44
2023/05/08 07:32:16;;;;;;;46.67;41.58;;;;;;;15.62;100.00;102021.91;5050482;28;20024;-45
2023/05/08 07:34:42;;;;;;;48.13;41.83;;;;;;;15.58;100.00;102016.13;5051384;28;20033;-46
2023/05/08 07:37:07;;;;;;;47.88;40.78;;;;;;;15.56;100.00;102010.03;5051260;28;20033;-46
2023/05/08 07:39:33;;;;;;;47.38;41.42;;;;;;;15.57;100.00;102017.25;5052283;28;20771;-49
2023/05/08 07:41:58;;;;;;;46.47;41.00;;;;;;;15.54;100.00;102013.09;5052389;28;20485;-46
2023/05/08 07:44:24;;;;;;;46.60;39.55;;;;;;;15.53;100.00;102016.22;5051154;28;20456;-45
2023/05/08 07:46:49;;;;;;;47.20;40.83;;;;;;;15.49;100.00;102015.19;5052344;28;20032;-45
2023/05/08 07:49:15;;;;;;;48.00;42.67;;;;;;;15.40;100.00;102013.13;5051694;28;20033;-41
2023/05/08 07:51:41;;;;;;;48.28;42.78;;;;;;;15.42;100.00;102015.63;5051327;28;20028;-45
2023/05/08 07:54:06;;;;;;;48.88;42.20;;;;;;;15.37;100.00;102012.91;5051016;28;20033;-47
2023/05/08 07:56:31;;;;;;;49.85;42.47;;;;;;;15.39;100.00;102016.22;5050974;28;20028;-47
2023/05/08 07:58:57;;;;;;;50.38;42.17;;;;;;;15.40;100.00;101999.19;5051078;28;20036;-46
2023/05/08 08:01:22;;;;;;;48.47;42.15;;;;;;;15.51;100.00;101998.97;5050769;28;20021;-46
2023/05/08 08:03:47;;;;;;;47.58;41.85;;;;;;;15.58;100.00;101996.59;5050751;28;20025;-44
2023/05/08 08:06:13;;;;;;;50.35;42.28;;;;;;;15.68;100.00;102007.50;5050573;28;20025;-45
2023/05/08 08:08:38;;;;;;;49.33;42.00;;;;;;;15.75;100.00;102004.28;5050941;28;20033;-45
2023/05/08 08:11:04;;;;;;;48.78;41.92;;;;;;;15.88;100.00;102000.69;5050927;28;20028;-44
2023/05/08 08:13:31;;;;;;;49.55;41.08;;;;;;;15.99;100.00;102009.63;5050750;28;20037;-45
2023/05/08 08:15:57;;;;;;;49.17;41.10;;;;;;;16.06;100.00;102015.59;5044208;28;20466;-46
2023/05/08 08:18:22;;;;;;;47.28;41.42;;;;;;;16.13;100.00;102009.59;5045843;28;20039;-45
2023/05/08 08:20:47;;;;;;;46.97;40.35;;;;;;;16.20;100.00;102006.38;5050923;28;20037;-44
2023/05/08 08:23:12;;;;;;;46.58;39.75;;;;;;;16.27;100.00;102006.75;5051071;28;20384;-45
2023/05/08 08:25:38;;;;;;;47.08;39.13;;;;;;;16.41;100.00;102006.69;5049254;28;20028;-46
2023/05/08 08:28:03;;;;;;;48.28;40.10;;;;;;;16.44;100.00;102010.78;5049217;28;20099;-45
2023/05/08 08:30:28;;;;;;;47.63;40.67;;;;;;;16.41;100.00;102012.25;5050474;28;20108;-45
2023/05/08 08:32:54;;;;;;;46.85;39.88;;;;;;;16.43;100.00;102006.38;5036615;28;20041;-45
2023/05/08 08:35:19;;;;;;;46.95;40.20;;;;;;;16.48;100.00;102011.81;5041161;28;20021;-46
2023/05/08 08:37:44;;;;;;;46.40;39.50;;;;;;;16.52;100.00;102008.06;5037513;28;20044;-45
2023/05/08 08:40:10;;;;;;;46.20;39.15;;;;;;;16.65;100.00;102011.13;5030234;28;20108;-46
2023/05/08 08:42:35;;;;;;;44.40;38.63;;;;;;;16.73;100.00;102009.50;5039255;28;20025;-45
2023/05/08 08:45:01;;;;;;;46.80;39.80;;;;;;;16.82;100.00;102010.38;5050846;28;20104;-45
2023/05/08 08:47:28;;;;;;;46.63;39.03;;;;;;;16.90;100.00;102006.81;5041160;28;20411;-47
2023/05/08 08:49:55;;;;;;;45.25;39.80;;;;;;;17.08;100.00;102001.34;5029164;28;20033;-48
2023/05/08 08:52:34;;;;;;;45.45;40.33;;;;;;;17.35;100.00;102000.25;5038583;28;20108;-45
2023/05/08 08:55:02;;;;;;;45.45;37.83;;;;;;;17.53;100.00;102005.91;5049760;28;20064;-44
2023/05/08 08:57:34;;;;;;;43.90;38.58;;;;;;;17.64;100.00;102006.44;5049636;28;20048;-46
2023/05/08 09:00:03;;;;;;;44.28;38.55;;;;;;;17.72;100.00;102005.63;5049778;28;20094;-44
2023/05/08 09:02:30;;;;;;;42.60;36.85;;;;;;;17.98;100.00;102008.47;5049835;28;20031;-44
2023/05/08 09:04:55;;;;;;;42.17;36.88;;;;;;;18.17;100.00;101999.75;5049862;28;20036;-46
2023/05/08 09:07:21;;;;;;;41.92;36.35;;;;;;;18.44;100.00;101997.72;5042129;28;20025;-47
2023/05/08 09:09:47;;;;;;;42.28;36.80;;;;;;;18.53;100.00;102001.34;5029734;28;20029;-45
2023/05/08 09:12:13;;;;;;;42.15;37.28;;;;;;;18.79;100.00;102003.28;5029894;28;20029;-45
2023/05/08 09:14:38;;;;;;;40.00;34.60;;;;;;;19.04;100.00;102003.53;5029913;28;20500;-44
2023/05/08 09:17:04;;;;;;;39.95;34.70;;;;;;;19.17;100.00;101998.84;5029795;28;20067;-45
2023/05/08 09:19:30;;;;;;;37.38;32.47;;;;;;;19.28;97.93;102002.91;5029228;28;20503;-46
2023/05/08 09:21:59;;;;;;;37.38;32.90;;;;;;;19.31;97.33;102004.22;5031080;28;20067;-43
2023/05/08 09:24:26;;;;;;;36.65;32.50;;;;;;;19.29;93.29;102004.56;5049641;28;20527;-45
2023/05/08 09:26:52;;;;;;;34.90;31.10;;;;;;;19.44;94.17;102016.38;5049438;28;20021;-45
2023/05/08 09:29:21;;;;;;;35.28;30.88;;;;;;;19.62;95.01;102014.28;5048469;28;20112;-45
2023/05/08 09:31:51;;;;;;;34.20;29.55;;;;;;;19.66;92.84;102015.22;5049149;28;20412;-45
2023/05/08 09:34:28;;;;;;;34.42;29.45;;;;;;;19.70;91.55;102002.19;5049367;28;20124;-45
2023/05/08 09:36:55;;;;;;;32.35;27.80;;;;;;;19.69;91.08;102002.53;5049187;28;20396;-45
2023/05/08 09:39:23;;;;;;;32.97;28.85;;;;;;;19.56;88.58;102007.22;5049235;28;20032;-44
2023/05/08 09:42:00;;;;;;;36.13;31.73;;;;;;;19.39;93.77;102006.16;5048983;28;20477;-43
2023/05/08 09:44:25;;;;;;;35.42;31.63;;;;;;;19.14;92.91;102008.78;5047317;28;20415;-44
2023/05/08 09:46:51;;;;;;;34.83;30.42;;;;;;;18.96;93.61;102015.59;5041007;28;20113;-47
2023/05/08 09:49:17;;;;;;;36.42;31.58;;;;;;;18.86;96.15;102016.75;5029204;28;20045;-46
2023/05/08 09:51:54;;;;;;;34.33;30.63;;;;;;;18.87;96.64;102007.19;5029154;28;20365;-43
2023/05/08 09:54:19;;;;;;;34.83;30.75;;;;;;;18.97;96.78;102014.44;5027889;28;20407;-44
2023/05/08 09:56:45;;;;;;;36.05;30.75;;;;;;;19.09;95.62;102005.31;5028211;28;20021;-44
2023/05/08 09:59:27;;;;;;;34.78;30.67;;;;;;;19.25;94.30;102017.63;5027288;28;20034;-44
2023/05/08 10:01:54;;;;;;;35.70;31.25;;;;;;;19.35;94.77;102012.78;5039523;28;20055;-46
2023/05/08 10:04:36;;;;;;;35.33;31.08;;;;;;;19.62;93.23;102017.09;5049074;28;20029;-43
2023/05/08 10:07:02;;;;;;;35.35;29.67;;;;;;;19.75;90.60;102013.19;5048117;28;20539;-48
2023/05/08 10:09:28;;;;;;;35.08;30.90;;;;;;;19.93;89.34;102013.94;5047148;28;20033;-45
2023/05/08 10:11:54;;;;;;;35.78;31.58;;;;;;;20.08;90.80;102015.31;5047094;28;20032;-46
2023/05/08 10:14:24;;;;;;;36.20;32.33;;;;;;;20.17;89.61;102012.41;5047275;28;20126;-44
2023/05/08 10:16:51;;;;;;;38.60;34.45;;;;;;;20.08;87.47;102008.84;5046981;28;20041;-46
2023/05/08 10:19:24;;;;;;;39.85;35.53;;;;;;;20.08;92.03;102012.50;5045639;28;20041;-47
2023/05/08 10:21:51;;;;;;;39.20;35.05;;;;;;;20.05;88.73;102015.16;5047631;28;20452;-46
2023/05/08 10:24:33;;;;;;;38.75;34.55;;;;;;;20.07;88.27;102015.66;5049138;28;20017;-44
2023/05/08 10:27:26;;;;;;;38.15;34.13;;;;;;;20.12;92.24;102023.06;5048956;28;20064;-44
2023/05/08 10:29:53;;;;;;;39.47;34.72;;;;;;;20.14;89.78;102018.72;5047411;28;20028;-45
2023/05/08 10:32:20;;;;;;;37.30;33.30;;;;;;;20.32;91.24;102018.56;5048243;28;20025;-44
2023/05/08 10:34:51;;;;;;;38.67;34.55;;;;;;;20.48;93.25;102013.94;5048189;28;20028;-46
2023/05/08 10:37:16;;;;;;;37.65;33.45;;;;;;;20.45;87.06;102022.25;5048259;28;20059;-45
2023/05/08 10:39:43;;;;;;;38.13;34.03;;;;;;;20.34;85.60;102022.66;5048708;28;20025;-44
2023/05/08 10:42:12;;;;;;;38.05;33.95;;;;;;;20.21;87.19;102010.56;5051566;28;20510;-46
2023/05/08 10:44:37;;;;;;;39.00;34.60;;;;;;;20.25;86.88;102024.72;5050787;28;20079;-46
2023/05/08 10:47:21;;;;;;;39.00;34.80;;;;;;;20.13;87.79;102011.47;5052355;28;20056;-43
2023/05/08 10:49:55;;;;;;;38.10;33.97;;;;;;;20.07;89.09;102007.22;5052722;28;20361;-45
2023/05/08 10:52:34;;;;;;;37.95;33.85;;;;;;;19.99;89.11;102010.91;5052502;28;20051;-48
2023/05/08 10:55:11;;;;;;;38.78;34.58;;;;;;;19.94;87.21;102014.72;5052257;28;20114;-48
2023/05/08 10:57:36;;;;;;;40.72;36.33;;;;;;;20.02;90.46;102002.63;5050565;28;20112;-43
2023/05/08 11:00:02;;;;;;;39.90;35.65;;;;;;;20.13;88.92;102005.84;5050770;28;20167;-45
2023/05/08 11:02:30;;;;;;;39.25;35.05;;;;;;;20.26;87.36;102004.72;5052208;28;20037;-45
2023/05/08 11:05:14;;;;;;;39.03;34.88;;;;;;;20.36;89.26;102003.47;5052386;28;20033;-45
2023/05/08 11:07:52;;;;;;;37.53;33.58;;;;;;;20.37;87.33;102004.28;5052478;28;20045;-44
2023/05/08 11:10:17;;;;;;;40.88;35.15;;;;;;;20.33;86.62;101994.91;5052092;28;20066;-44